sensor_id;sensor_type;location;lat;lon;timestamp;temperature;humidity
56076;DHT22;41951;49.022;12.066;2023-03-14T00:01:19;10.40;99.90
56076;DHT22;41951;49.022;12.066;2023-03-14T00:03:46;10.40;99.90
56076;DHT22;41951;49.022;12.066;2023-03-14T00:06:13;10.30;99.90
56076;DHT22;41951;49.022;12.066;2023-03-14T00:08:39;10.30;99.90
56076;DHT22;41951;49.022;12.066;2023-03-14T00:11:10;10.20;99.90
56076;DHT22;41951;49.022;12.066;2023-03-14T00:13:36;10.30;99.90
56076;DHT22;41951;49.022;12.066;2023-03-14T00:16:04;10.20;99.90
56076;DHT22;41951;49.022;12.066;2023-03-14T00:18:29;10.20;99.90
56076;DHT22;41951;49.022;12.066;2023-03-14T00:20:58;10.20;99.90
56076;DHT22;41951;49.022;12.066;2023-03-14T00:23:24;10.10;99.90
56076;DHT22;41951;49.022;12.066;2023-03-14T00:25:49;10.10;99.90
56076;DHT22;41951;49.022;12.066;2023-03-14T00:28:15;10.00;99.90
56076;DHT22;41951;49.022;12.066;2023-03-14T00:30:40;10.90;99.90
56076;DHT22;41951;49.022;12.066;2023-03-14T00:33:06;10.00;99.90
56076;DHT22;41951;49.022;12.066;2023-03-14T00:35:32;9.90;99.90
56076;DHT22;41951;49.022;12.066;2023-03-14T00:37:57;9.90;99.90
56076;DHT22;41951;49.022;12.066;2023-03-14T00:40:23;9.90;99.90
56076;DHT22;41951;49.022;12.066;2023-03-14T00:42:48;9.90;99.90
56076;DHT22;41951;49.022;12.066;2023-03-14T00:45:14;10.00;99.90
56076;DHT22;41951;49.022;12.066;2023-03-14T00:47:39;9.90;99.90
56076;DHT22;41951;49.022;12.066;2023-03-14T00:50:05;10.00;99.90
56076;DHT22;41951;49.022;12.066;2023-03-14T00:52:32;9.90;99.90
56076;DHT22;41951;49.022;12.066;2023-03-14T00:54:57;9.90;99.90
56076;DHT22;41951;49.022;12.066;2023-03-14T00:57:23;9.90;99.90
56076;DHT22;41951;49.022;12.066;2023-03-14T00:59:50;9.90;99.90
56076;DHT22;41951;49.022;12.066;2023-03-14T01:02:15;9.90;99.90
56076;DHT22;41951;49.022;12.066;2023-03-14T01:04:41;9.90;99.90
56076;DHT22;41951;49.022;12.066;2023-03-14T01:07:08;9.90;99.90
56076;DHT22;41951;49.022;12.066;2023-03-14T01:09:34;9.80;99.90
56076;DHT22;41951;49.022;12.066;2023-03-14T01:11:59;9.80;99.90
56076;DHT22;41951;49.022;12.066;2023-03-14T01:14:25;9.80;99.90
56076;DHT22;41951;49.022;12.066;2023-03-14T01:16:50;9.90;99.90
56076;DHT22;41951;49.022;12.066;2023-03-14T01:19:16;9.80;99.90
56076;DHT22;41951;49.022;12.066;2023-03-14T01:21:41;9.90;99.90
56076;DHT22;41951;49.022;12.066;2023-03-14T01:24:07;9.90;99.90
56076;DHT22;41951;49.022;12.066;2023-03-14T01:26:34;9.90;99.90
56076;DHT22;41951;49.022;12.066;2023-03-14T01:29:00;9.90;99.90
56076;DHT22;41951;49.022;12.066;2023-03-14T01:31:26;9.90;99.90
56076;DHT22;41951;49.022;12.066;2023-03-14T01:33:52;9.90;99.90
56076;DHT22;41951;49.022;12.066;2023-03-14T01:36:18;9.90;99.90
56076;DHT22;41951;49.022;12.066;2023-03-14T01:38:44;9.90;99.90
56076;DHT22;41951;49.022;12.066;2023-03-14T01:41:15;9.90;99.90
56076;DHT22;41951;49.022;12.066;2023-03-14T01:43:41;9.90;99.90
56076;DHT22;41951;49.022;12.066;2023-03-14T01:48:44;9.90;99.90
56076;DHT22;41951;49.022;12.066;2023-03-14T01:54:07;9.90;99.90
56076;DHT22;41951;49.022;12.066;2023-03-14T01:56:34;9.90;99.90
56076;DHT22;41951;49.022;12.066;2023-03-14T01:59:01;9.90;99.90
56076;DHT22;41951;49.022;12.066;2023-03-14T02:01:29;9.90;99.90
56076;DHT22;41951;49.022;12.066;2023-03-14T02:03:58;9.90;99.90
56076;DHT22;41951;49.022;12.066;2023-03-14T02:06:32;9.80;99.90
56076;DHT22;41951;49.022;12.066;2023-03-14T02:09:00;9.90;99.90
56076;DHT22;41951;49.022;12.066;2023-03-14T02:11:28;9.80;99.90
56076;DHT22;41951;49.022;12.066;2023-03-14T02:13:55;9.80;99.90
56076;DHT22;41951;49.022;12.066;2023-03-14T02:16:22;9.80;99.90
56076;DHT22;41951;49.022;12.066;2023-03-14T02:18:48;9.80;99.90
56076;DHT22;41951;49.022;12.066;2023-03-14T02:23:58;9.70;99.90
56076;DHT22;41951;49.022;12.066;2023-03-14T02:26:38;9.70;99.90
56076;DHT22;41951;49.022;12.066;2023-03-14T02:29:05;9.60;99.90
56076;DHT22;41951;49.022;12.066;2023-03-14T02:31:30;9.60;99.90
56076;DHT22;41951;49.022;12.066;2023-03-14T02:33:56;9.60;99.90
56076;DHT22;41951;49.022;12.066;2023-03-14T02:36:23;9.50;99.90
56076;DHT22;41951;49.022;12.066;2023-03-14T02:38:55;9.50;99.90
56076;DHT22;41951;49.022;12.066;2023-03-14T02:41:21;9.50;99.90
56076;DHT22;41951;49.022;12.066;2023-03-14T02:43:46;9.40;99.90
56076;DHT22;41951;49.022;12.066;2023-03-14T02:46:14;9.40;99.90
56076;DHT22;41951;49.022;12.066;2023-03-14T02:48:57;9.40;99.90
56076;DHT22;41951;49.022;12.066;2023-03-14T02:51:24;9.40;99.90
56076;DHT22;41951;49.022;12.066;2023-03-14T02:53:51;9.40;99.90
56076;DHT22;41951;49.022;12.066;2023-03-14T02:56:16;9.40;99.90
56076;DHT22;41951;49.022;12.066;2023-03-14T02:58:42;9.30;99.90
56076;DHT22;41951;49.022;12.066;2023-03-14T03:01:08;9.30;99.90
56076;DHT22;41951;49.022;12.066;2023-03-14T03:03:33;9.30;99.90
56076;DHT22;41951;49.022;12.066;2023-03-14T03:05:59;9.30;99.90
56076;DHT22;41951;49.022;12.066;2023-03-14T03:08:26;9.20;99.90
56076;DHT22;41951;49.022;12.066;2023-03-14T03:10:52;9.20;99.90
56076;DHT22;41951;49.022;12.066;2023-03-14T03:13:18;9.20;99.90
56076;DHT22;41951;49.022;12.066;2023-03-14T03:15:44;9.20;99.90
56076;DHT22;41951;49.022;12.066;2023-03-14T03:18:09;9.10;99.90
56076;DHT22;41951;49.022;12.066;2023-03-14T03:20:35;9.10;99.90
56076;DHT22;41951;49.022;12.066;2023-03-14T03:23:01;9.20;99.90
56076;DHT22;41951;49.022;12.066;2023-03-14T03:25:27;9.10;99.90
56076;DHT22;41951;49.022;12.066;2023-03-14T03:27:53;9.20;99.90
56076;DHT22;41951;49.022;12.066;2023-03-14T03:30:19;9.20;99.90
56076;DHT22;41951;49.022;12.066;2023-03-14T03:32:44;9.20;99.90
56076;DHT22;41951;49.022;12.066;2023-03-14T03:35:10;9.10;99.90
56076;DHT22;41951;49.022;12.066;2023-03-14T03:37:36;9.20;99.90
56076;DHT22;41951;49.022;12.066;2023-03-14T03:40:02;9.20;99.90
56076;DHT22;41951;49.022;12.066;2023-03-14T03:42:31;9.10;99.90
56076;DHT22;41951;49.022;12.066;2023-03-14T03:44:57;9.20;99.90
56076;DHT22;41951;49.022;12.066;2023-03-14T03:47:23;9.20;99.90
56076;DHT22;41951;49.022;12.066;2023-03-14T03:49:48;9.20;99.90
56076;DHT22;41951;49.022;12.066;2023-03-14T03:52:14;9.10;99.90
56076;DHT22;41951;49.022;12.066;2023-03-14T03:54:39;9.20;99.90
56076;DHT22;41951;49.022;12.066;2023-03-14T03:57:05;9.20;99.90
56076;DHT22;41951;49.022;12.066;2023-03-14T03:59:30;9.20;99.90
56076;DHT22;41951;49.022;12.066;2023-03-14T04:01:56;9.10;99.90
56076;DHT22;41951;49.022;12.066;2023-03-14T04:04:22;9.20;99.90
56076;DHT22;41951;49.022;12.066;2023-03-14T04:06:47;9.20;99.90
56076;DHT22;41951;49.022;12.066;2023-03-14T04:09:13;9.20;99.90
56076;DHT22;41951;49.022;12.066;2023-03-14T04:11:39;9.10;99.90
56076;DHT22;41951;49.022;12.066;2023-03-14T04:14:05;9.10;99.90
56076;DHT22;41951;49.022;12.066;2023-03-14T04:16:30;9.10;99.90
56076;DHT22;41951;49.022;12.066;2023-03-14T04:19:00;9.10;99.90
56076;DHT22;41951;49.022;12.066;2023-03-14T04:21:26;9.10;99.90
56076;DHT22;41951;49.022;12.066;2023-03-14T04:23:51;9.10;99.90
56076;DHT22;41951;49.022;12.066;2023-03-14T04:26:17;9.10;99.90
56076;DHT22;41951;49.022;12.066;2023-03-14T04:28:43;9.10;99.90
56076;DHT22;41951;49.022;12.066;2023-03-14T04:31:10;9.10;99.90
56076;DHT22;41951;49.022;12.066;2023-03-14T04:33:36;9.10;99.90
56076;DHT22;41951;49.022;12.066;2023-03-14T04:36:03;9.10;99.90
56076;DHT22;41951;49.022;12.066;2023-03-14T04:38:29;9.10;99.90
56076;DHT22;41951;49.022;12.066;2023-03-14T04:40:54;9.10;99.90
56076;DHT22;41951;49.022;12.066;2023-03-14T04:43:20;9.10;99.90
56076;DHT22;41951;49.022;12.066;2023-03-14T04:45:46;9.10;99.90
56076;DHT22;41951;49.022;12.066;2023-03-14T04:48:11;9.00;99.90
56076;DHT22;41951;49.022;12.066;2023-03-14T04:50:38;9.00;99.90
56076;DHT22;41951;49.022;12.066;2023-03-14T04:53:04;9.00;99.90
56076;DHT22;41951;49.022;12.066;2023-03-14T04:55:29;9.00;99.90
56076;DHT22;41951;49.022;12.066;2023-03-14T04:57:57;9.10;99.90
56076;DHT22;41951;49.022;12.066;2023-03-14T05:00:23;9.10;99.90
56076;DHT22;41951;49.022;12.066;2023-03-14T05:02:48;9.00;99.90
56076;DHT22;41951;49.022;12.066;2023-03-14T05:05:14;9.00;99.90
56076;DHT22;41951;49.022;12.066;2023-03-14T05:07:39;8.90;99.90
56076;DHT22;41951;49.022;12.066;2023-03-14T05:10:05;9.00;99.90
56076;DHT22;41951;49.022;12.066;2023-03-14T05:12:31;9.00;99.90
56076;DHT22;41951;49.022;12.066;2023-03-14T05:14:56;8.90;99.90
56076;DHT22;41951;49.022;12.066;2023-03-14T05:17:22;8.90;99.90
56076;DHT22;41951;49.022;12.066;2023-03-14T05:19:47;8.90;99.90
56076;DHT22;41951;49.022;12.066;2023-03-14T05:22:13;8.90;99.90
56076;DHT22;41951;49.022;12.066;2023-03-14T05:24:38;8.90;99.90
56076;DHT22;41951;49.022;12.066;2023-03-14T05:27:04;8.90;99.90
56076;DHT22;41951;49.022;12.066;2023-03-14T05:29:30;8.90;99.90
56076;DHT22;41951;49.022;12.066;2023-03-14T05:31:56;8.90;99.90
56076;DHT22;41951;49.022;12.066;2023-03-14T05:34:21;8.90;99.90
56076;DHT22;41951;49.022;12.066;2023-03-14T05:36:47;8.90;99.90
56076;DHT22;41951;49.022;12.066;2023-03-14T05:39:12;8.90;99.90
56076;DHT22;41951;49.022;12.066;2023-03-14T05:41:38;8.90;99.90
56076;DHT22;41951;49.022;12.066;2023-03-14T05:44:03;8.90;99.90
56076;DHT22;41951;49.022;12.066;2023-03-14T05:46:29;8.90;99.90
56076;DHT22;41951;49.022;12.066;2023-03-14T05:48:57;8.90;99.90
56076;DHT22;41951;49.022;12.066;2023-03-14T05:51:23;8.90;99.90
56076;DHT22;41951;49.022;12.066;2023-03-14T05:53:49;8.90;99.90
56076;DHT22;41951;49.022;12.066;2023-03-14T05:56:14;8.90;99.90
56076;DHT22;41951;49.022;12.066;2023-03-14T05:58:40;8.90;99.90
56076;DHT22;41951;49.022;12.066;2023-03-14T06:01:06;8.90;99.90
56076;DHT22;41951;49.022;12.066;2023-03-14T06:03:33;9.00;99.90
56076;DHT22;41951;49.022;12.066;2023-03-14T06:05:58;9.00;99.90
56076;DHT22;41951;49.022;12.066;2023-03-14T06:08:24;9.00;99.90
56076;DHT22;41951;49.022;12.066;2023-03-14T06:10:50;9.00;99.90
56076;DHT22;41951;49.022;12.066;2023-03-14T06:13:16;9.00;99.90
56076;DHT22;41951;49.022;12.066;2023-03-14T06:15:42;9.00;99.90
56076;DHT22;41951;49.022;12.066;2023-03-14T06:18:07;9.00;99.90
56076;DHT22;41951;49.022;12.066;2023-03-14T06:20:36;9.00;99.90
56076;DHT22;41951;49.022;12.066;2023-03-14T06:23:01;9.00;99.90
56076;DHT22;41951;49.022;12.066;2023-03-14T06:25:27;9.00;99.90
56076;DHT22;41951;49.022;12.066;2023-03-14T06:27:52;9.00;99.90
56076;DHT22;41951;49.022;12.066;2023-03-14T06:30:18;9.00;99.90
56076;DHT22;41951;49.022;12.066;2023-03-14T06:32:44;9.10;99.90
56076;DHT22;41951;49.022;12.066;2023-03-14T06:35:09;9.10;99.90
56076;DHT22;41951;49.022;12.066;2023-03-14T06:37:35;9.10;99.90
56076;DHT22;41951;49.022;12.066;2023-03-14T06:40:00;9.00;99.90
56076;DHT22;41951;49.022;12.066;2023-03-14T06:42:26;9.00;99.90
56076;DHT22;41951;49.022;12.066;2023-03-14T06:44:52;9.10;99.90
56076;DHT22;41951;49.022;12.066;2023-03-14T06:47:17;9.10;99.90
56076;DHT22;41951;49.022;12.066;2023-03-14T06:49:43;9.10;99.90
56076;DHT22;41951;49.022;12.066;2023-03-14T06:52:08;9.10;99.90
56076;DHT22;41951;49.022;12.066;2023-03-14T06:54:34;9.10;99.90
56076;DHT22;41951;49.022;12.066;2023-03-14T06:56:59;9.10;99.90
56076;DHT22;41951;49.022;12.066;2023-03-14T06:59:25;9.10;99.90
56076;DHT22;41951;49.022;12.066;2023-03-14T07:01:50;9.10;99.90
56076;DHT22;41951;49.022;12.066;2023-03-14T07:04:17;9.10;99.90
56076;DHT22;41951;49.022;12.066;2023-03-14T07:06:42;9.20;99.90
56076;DHT22;41951;49.022;12.066;2023-03-14T07:09:12;9.20;99.90
56076;DHT22;41951;49.022;12.066;2023-03-14T07:11:38;9.20;99.90
56076;DHT22;41951;49.022;12.066;2023-03-14T07:14:04;9.20;99.90
56076;DHT22;41951;49.022;12.066;2023-03-14T07:16:30;9.20;99.90
56076;DHT22;41951;49.022;12.066;2023-03-14T07:18:58;9.20;99.90
56076;DHT22;41951;49.022;12.066;2023-03-14T07:21:24;9.20;99.90
56076;DHT22;41951;49.022;12.066;2023-03-14T07:23:50;9.20;99.90
56076;DHT22;41951;49.022;12.066;2023-03-14T07:26:15;9.20;99.90
56076;DHT22;41951;49.022;12.066;2023-03-14T07:28:41;9.20;99.90
56076;DHT22;41951;49.022;12.066;2023-03-14T07:31:07;9.20;99.90
56076;DHT22;41951;49.022;12.066;2023-03-14T07:33:32;9.20;99.90
56076;DHT22;41951;49.022;12.066;2023-03-14T07:35:58;9.30;99.90
56076;DHT22;41951;49.022;12.066;2023-03-14T07:38:24;9.30;99.90
56076;DHT22;41951;49.022;12.066;2023-03-14T07:40:50;9.30;99.90
56076;DHT22;41951;49.022;12.066;2023-03-14T07:43:16;9.30;99.90
56076;DHT22;41951;49.022;12.066;2023-03-14T07:45:44;9.30;99.90
56076;DHT22;41951;49.022;12.066;2023-03-14T07:48:10;9.30;99.90
56076;DHT22;41951;49.022;12.066;2023-03-14T07:50:36;9.30;99.90
56076;DHT22;41951;49.022;12.066;2023-03-14T07:53:01;9.30;99.90
56076;DHT22;41951;49.022;12.066;2023-03-14T07:55:27;9.30;99.90
56076;DHT22;41951;49.022;12.066;2023-03-14T07:57:52;9.30;99.90
56076;DHT22;41951;49.022;12.066;2023-03-14T08:00:18;9.30;99.90
56076;DHT22;41951;49.022;12.066;2023-03-14T08:02:44;9.30;99.90
56076;DHT22;41951;49.022;12.066;2023-03-14T08:05:09;9.30;99.90
56076;DHT22;41951;49.022;12.066;2023-03-14T08:07:35;9.30;99.90
56076;DHT22;41951;49.022;12.066;2023-03-14T08:10:01;9.30;99.90
56076;DHT22;41951;49.022;12.066;2023-03-14T08:12:27;9.30;99.90
56076;DHT22;41951;49.022;12.066;2023-03-14T08:14:53;9.40;99.90
56076;DHT22;41951;49.022;12.066;2023-03-14T08:17:18;9.40;99.90
56076;DHT22;41951;49.022;12.066;2023-03-14T08:19:44;9.40;99.90
56076;DHT22;41951;49.022;12.066;2023-03-14T08:22:10;9.40;99.90
56076;DHT22;41951;49.022;12.066;2023-03-14T08:24:35;9.50;99.90
56076;DHT22;41951;49.022;12.066;2023-03-14T08:27:01;9.50;99.90
56076;DHT22;41951;49.022;12.066;2023-03-14T08:29:26;9.60;99.90
56076;DHT22;41951;49.022;12.066;2023-03-14T08:31:52;9.60;99.90
56076;DHT22;41951;49.022;12.066;2023-03-14T08:34:17;9.60;99.90
56076;DHT22;41951;49.022;12.066;2023-03-14T08:36:43;9.70;99.90
56076;DHT22;41951;49.022;12.066;2023-03-14T08:39:10;9.70;99.90
56076;DHT22;41951;49.022;12.066;2023-03-14T08:41:35;9.80;99.90
56076;DHT22;41951;49.022;12.066;2023-03-14T08:44:06;9.80;99.90
56076;DHT22;41951;49.022;12.066;2023-03-14T08:46:32;9.90;99.90
56076;DHT22;41951;49.022;12.066;2023-03-14T08:48:58;9.90;99.90
56076;DHT22;41951;49.022;12.066;2023-03-14T08:51:24;10.00;99.90
56076;DHT22;41951;49.022;12.066;2023-03-14T08:53:50;10.00;99.90
56076;DHT22;41951;49.022;12.066;2023-03-14T08:56:16;10.00;99.90
56076;DHT22;41951;49.022;12.066;2023-03-14T08:58:42;10.10;99.90
56076;DHT22;41951;49.022;12.066;2023-03-14T09:01:09;10.20;99.90
56076;DHT22;41951;49.022;12.066;2023-03-14T09:03:35;10.20;99.90
56076;DHT22;41951;49.022;12.066;2023-03-14T09:06:05;10.20;99.90
56076;DHT22;41951;49.022;12.066;2023-03-14T09:08:31;10.20;99.90
56076;DHT22;41951;49.022;12.066;2023-03-14T09:10:57;10.30;99.90
56076;DHT22;41951;49.022;12.066;2023-03-14T09:13:23;10.30;99.90
56076;DHT22;41951;49.022;12.066;2023-03-14T09:15:52;10.40;99.90
56076;DHT22;41951;49.022;12.066;2023-03-14T09:18:18;10.40;99.90
56076;DHT22;41951;49.022;12.066;2023-03-14T09:20:44;10.50;99.90
56076;DHT22;41951;49.022;12.066;2023-03-14T09:23:09;10.50;99.90
56076;DHT22;41951;49.022;12.066;2023-03-14T09:25:35;10.50;99.90
56076;DHT22;41951;49.022;12.066;2023-03-14T09:28:00;10.60;99.90
56076;DHT22;41951;49.022;12.066;2023-03-14T09:30:26;10.60;99.90
56076;DHT22;41951;49.022;12.066;2023-03-14T09:32:52;10.60;99.90
56076;DHT22;41951;49.022;12.066;2023-03-14T09:35:17;10.70;99.90
56076;DHT22;41951;49.022;12.066;2023-03-14T09:37:43;10.70;99.90
56076;DHT22;41951;49.022;12.066;2023-03-14T09:40:13;10.70;99.90
56076;DHT22;41951;49.022;12.066;2023-03-14T09:42:39;10.70;99.90
56076;DHT22;41951;49.022;12.066;2023-03-14T09:45:11;10.70;99.90
56076;DHT22;41951;49.022;12.066;2023-03-14T09:47:37;10.80;99.90
56076;DHT22;41951;49.022;12.066;2023-03-14T09:50:03;10.90;99.90
56076;DHT22;41951;49.022;12.066;2023-03-14T09:52:38;11.00;99.90
56076;DHT22;41951;49.022;12.066;2023-03-14T09:55:07;11.00;99.90
56076;DHT22;41951;49.022;12.066;2023-03-14T09:57:35;11.00;99.90
56076;DHT22;41951;49.022;12.066;2023-03-14T10:00:18;11.10;99.90
56076;DHT22;41951;49.022;12.066;2023-03-14T10:05:33;11.20;99.90
56076;DHT22;41951;49.022;12.066;2023-03-14T10:07:59;11.20;99.90
56076;DHT22;41951;49.022;12.066;2023-03-14T10:10:26;11.20;99.90
56076;DHT22;41951;49.022;12.066;2023-03-14T10:13:01;11.30;99.90
56076;DHT22;41951;49.022;12.066;2023-03-14T10:15:32;11.40;99.90
56076;DHT22;41951;49.022;12.066;2023-03-14T10:18:00;11.40;99.90
56076;DHT22;41951;49.022;12.066;2023-03-14T10:20:35;11.40;99.90
56076;DHT22;41951;49.022;12.066;2023-03-14T10:25:40;11.40;99.90
56076;DHT22;41951;49.022;12.066;2023-03-14T10:30:51;11.50;99.90
56076;DHT22;41951;49.022;12.066;2023-03-14T10:35:42;11.80;99.90
56076;DHT22;41951;49.022;12.066;2023-03-14T10:38:12;11.90;99.90
56076;DHT22;41951;49.022;12.066;2023-03-14T10:40:39;12.00;99.90
56076;DHT22;41951;49.022;12.066;2023-03-14T10:43:13;12.00;99.90
56076;DHT22;41951;49.022;12.066;2023-03-14T10:45:40;12.10;99.90
56076;DHT22;41951;49.022;12.066;2023-03-14T10:53:19;12.20;99.90
56076;DHT22;41951;49.022;12.066;2023-03-14T10:55:45;12.20;99.90
56076;DHT22;41951;49.022;12.066;2023-03-14T10:58:19;12.10;99.90
56076;DHT22;41951;49.022;12.066;2023-03-14T11:01:04;12.20;99.90
56076;DHT22;41951;49.022;12.066;2023-03-14T11:03:33;12.20;99.90
56076;DHT22;41951;49.022;12.066;2023-03-14T11:06:25;12.20;99.90
56076;DHT22;41951;49.022;12.066;2023-03-14T11:09:06;12.10;99.90
56076;DHT22;41951;49.022;12.066;2023-03-14T11:11:34;12.10;99.90
56076;DHT22;41951;49.022;12.066;2023-03-14T11:14:27;12.00;99.90
56076;DHT22;41951;49.022;12.066;2023-03-14T11:17:16;12.00;99.90
56076;DHT22;41951;49.022;12.066;2023-03-14T11:19:53;12.00;99.90
56076;DHT22;41951;49.022;12.066;2023-03-14T11:25:18;11.90;99.90
56076;DHT22;41951;49.022;12.066;2023-03-14T11:30:55;11.80;99.90
56076;DHT22;41951;49.022;12.066;2023-03-14T11:33:38;11.70;99.90
56076;DHT22;41951;49.022;12.066;2023-03-14T11:36:08;11.80;99.90
56076;DHT22;41951;49.022;12.066;2023-03-14T11:38:38;11.90;99.90
56076;DHT22;41951;49.022;12.066;2023-03-14T11:41:12;11.90;99.90
56076;DHT22;41951;49.022;12.066;2023-03-14T11:43:40;12.00;99.90
56076;DHT22;41951;49.022;12.066;2023-03-14T11:46:33;12.00;99.90
56076;DHT22;41951;49.022;12.066;2023-03-14T11:49:14;12.10;99.90
56076;DHT22;41951;49.022;12.066;2023-03-14T11:51:46;12.20;99.90
56076;DHT22;41951;49.022;12.066;2023-03-14T11:54:33;12.20;99.90
56076;DHT22;41951;49.022;12.066;2023-03-14T11:57:03;12.30;99.90
56076;DHT22;41951;49.022;12.066;2023-03-14T11:59:41;12.30;99.90
56076;DHT22;41951;49.022;12.066;2023-03-14T12:07:30;12.90;99.90
56076;DHT22;41951;49.022;12.066;2023-03-14T12:09:59;13.20;99.90
56076;DHT22;41951;49.022;12.066;2023-03-14T12:12:26;13.40;99.90
56076;DHT22;41951;49.022;12.066;2023-03-14T12:14:58;13.30;99.90
56076;DHT22;41951;49.022;12.066;2023-03-14T12:17:36;13.20;99.90
56076;DHT22;41951;49.022;12.066;2023-03-14T12:20:17;13.10;99.90
56076;DHT22;41951;49.022;12.066;2023-03-14T12:23:06;13.00;99.90
56076;DHT22;41951;49.022;12.066;2023-03-14T12:25:32;12.90;99.90
56076;DHT22;41951;49.022;12.066;2023-03-14T12:28:20;12.80;99.90
56076;DHT22;41951;49.022;12.066;2023-03-14T12:30:46;12.70;99.90
56076;DHT22;41951;49.022;12.066;2023-03-14T12:35:48;12.60;99.90
56076;DHT22;41951;49.022;12.066;2023-03-14T12:41:29;12.60;99.90
56076;DHT22;41951;49.022;12.066;2023-03-14T12:46:58;12.50;99.90
56076;DHT22;41951;49.022;12.066;2023-03-14T12:49:35;12.50;99.90
56076;DHT22;41951;49.022;12.066;2023-03-14T12:52:18;12.60;99.90
56076;DHT22;41951;49.022;12.066;2023-03-14T12:57:43;12.60;99.90
56076;DHT22;41951;49.022;12.066;2023-03-14T13:01:02;12.60;99.90
56076;DHT22;41951;49.022;12.066;2023-03-14T13:06:54;12.60;99.90
56076;DHT22;41951;49.022;12.066;2023-03-14T13:12:11;12.50;99.90
56076;DHT22;41951;49.022;12.066;2023-03-14T13:14:44;12.50;99.90
56076;DHT22;41951;49.022;12.066;2023-03-14T13:17:12;12.40;99.90
56076;DHT22;41951;49.022;12.066;2023-03-14T13:19:38;12.40;99.90
56076;DHT22;41951;49.022;12.066;2023-03-14T13:22:06;12.40;99.90
56076;DHT22;41951;49.022;12.066;2023-03-14T13:24:38;12.40;99.90
56076;DHT22;41951;49.022;12.066;2023-03-14T13:27:04;12.30;99.90
56076;DHT22;41951;49.022;12.066;2023-03-14T13:29:33;12.30;99.90
56076;DHT22;41951;49.022;12.066;2023-03-14T13:32:16;12.20;99.90
56076;DHT22;41951;49.022;12.066;2023-03-14T13:34:42;12.10;99.90
56076;DHT22;41951;49.022;12.066;2023-03-14T13:37:21;12.10;99.90
56076;DHT22;41951;49.022;12.066;2023-03-14T13:39:54;12.20;99.90
56076;DHT22;41951;49.022;12.066;2023-03-14T13:42:27;12.20;99.90
56076;DHT22;41951;49.022;12.066;2023-03-14T13:44:55;12.50;99.90
56076;DHT22;41951;49.022;12.066;2023-03-14T13:47:24;12.50;99.90
56076;DHT22;41951;49.022;12.066;2023-03-14T13:49:50;12.50;99.90
56076;DHT22;41951;49.022;12.066;2023-03-14T13:52:31;12.40;99.90
56076;DHT22;41951;49.022;12.066;2023-03-14T13:54:59;12.40;99.90
56076;DHT22;41951;49.022;12.066;2023-03-14T13:57:25;12.30;99.90
56076;DHT22;41951;49.022;12.066;2023-03-14T14:00:05;12.30;99.90
56076;DHT22;41951;49.022;12.066;2023-03-14T14:02:33;12.20;99.90
56076;DHT22;41951;49.022;12.066;2023-03-14T14:05:00;12.10;99.90
56076;DHT22;41951;49.022;12.066;2023-03-14T14:07:26;12.00;99.90
56076;DHT22;41951;49.022;12.066;2023-03-14T14:09:52;11.80;99.90
56076;DHT22;41951;49.022;12.066;2023-03-14T14:12:55;11.40;99.90
56076;DHT22;41951;49.022;12.066;2023-03-14T14:15:21;11.10;99.90
56076;DHT22;41951;49.022;12.066;2023-03-14T14:18:00;10.80;99.90
56076;DHT22;41951;49.022;12.066;2023-03-14T14:20:38;10.70;99.90
56076;DHT22;41951;49.022;12.066;2023-03-14T14:23:09;10.60;99.90
56076;DHT22;41951;49.022;12.066;2023-03-14T14:25:36;10.50;99.90
56076;DHT22;41951;49.022;12.066;2023-03-14T14:28:31;10.50;99.90
56076;DHT22;41951;49.022;12.066;2023-03-14T14:31:18;10.40;99.90
56076;DHT22;41951;49.022;12.066;2023-03-14T14:34:00;10.30;99.90
56076;DHT22;41951;49.022;12.066;2023-03-14T14:36:38;10.30;99.90
56076;DHT22;41951;49.022;12.066;2023-03-14T14:39:16;10.20;99.90
56076;DHT22;41951;49.022;12.066;2023-03-14T14:41:43;10.20;99.90
56076;DHT22;41951;49.022;12.066;2023-03-14T14:44:13;10.20;99.90
56076;DHT22;41951;49.022;12.066;2023-03-14T14:46:39;10.20;99.90
56076;DHT22;41951;49.022;12.066;2023-03-14T14:49:18;10.20;99.90
56076;DHT22;41951;49.022;12.066;2023-03-14T14:51:48;10.20;99.90
56076;DHT22;41951;49.022;12.066;2023-03-14T14:54:42;10.20;99.90
56076;DHT22;41951;49.022;12.066;2023-03-14T14:57:37;10.10;99.90
56076;DHT22;41951;49.022;12.066;2023-03-14T15:00:18;10.00;99.90
56076;DHT22;41951;49.022;12.066;2023-03-14T15:02:55;10.00;99.90
56076;DHT22;41951;49.022;12.066;2023-03-14T15:05:26;10.00;99.90
56076;DHT22;41951;49.022;12.066;2023-03-14T15:07:53;9.90;99.90
56076;DHT22;41951;49.022;12.066;2023-03-14T15:10:21;9.90;99.90
56076;DHT22;41951;49.022;12.066;2023-03-14T15:12:48;9.90;99.90
56076;DHT22;41951;49.022;12.066;2023-03-14T15:15:14;9.90;99.90
56076;DHT22;41951;49.022;12.066;2023-03-14T15:17:39;9.80;99.90
56076;DHT22;41951;49.022;12.066;2023-03-14T15:20:10;9.80;99.90
56076;DHT22;41951;49.022;12.066;2023-03-14T15:22:39;9.90;99.90
56076;DHT22;41951;49.022;12.066;2023-03-14T15:25:05;9.80;99.90
56076;DHT22;41951;49.022;12.066;2023-03-14T15:27:31;9.90;99.90
56076;DHT22;41951;49.022;12.066;2023-03-14T15:29:57;9.90;99.90
56076;DHT22;41951;49.022;12.066;2023-03-14T15:32:24;9.80;99.90
56076;DHT22;41951;49.022;12.066;2023-03-14T15:34:50;9.90;99.90
56076;DHT22;41951;49.022;12.066;2023-03-14T15:37:16;9.80;99.90
56076;DHT22;41951;49.022;12.066;2023-03-14T15:39:42;9.70;99.90
56076;DHT22;41951;49.022;12.066;2023-03-14T15:42:08;9.50;99.90
56076;DHT22;41951;49.022;12.066;2023-03-14T15:44:34;9.40;99.90
56076;DHT22;41951;49.022;12.066;2023-03-14T15:47:00;9.10;99.90
56076;DHT22;41951;49.022;12.066;2023-03-14T15:49:27;9.00;99.90
56076;DHT22;41951;49.022;12.066;2023-03-14T15:51:52;9.00;99.90
56076;DHT22;41951;49.022;12.066;2023-03-14T15:54:18;8.90;99.90
56076;DHT22;41951;49.022;12.066;2023-03-14T15:56:43;8.80;99.90
56076;DHT22;41951;49.022;12.066;2023-03-14T15:59:09;8.80;99.90
56076;DHT22;41951;49.022;12.066;2023-03-14T16:01:34;8.60;99.90
56076;DHT22;41951;49.022;12.066;2023-03-14T16:04:00;8.60;99.90
56076;DHT22;41951;49.022;12.066;2023-03-14T16:06:27;8.50;99.90
56076;DHT22;41951;49.022;12.066;2023-03-14T16:08:53;8.50;99.90
56076;DHT22;41951;49.022;12.066;2023-03-14T16:11:19;8.50;99.90
56076;DHT22;41951;49.022;12.066;2023-03-14T16:13:46;8.40;99.90
56076;DHT22;41951;49.022;12.066;2023-03-14T16:16:11;8.40;99.90
56076;DHT22;41951;49.022;12.066;2023-03-14T16:18:38;8.30;99.90
56076;DHT22;41951;49.022;12.066;2023-03-14T16:21:24;8.20;99.90
56076;DHT22;41951;49.022;12.066;2023-03-14T16:23:50;8.20;99.90
56076;DHT22;41951;49.022;12.066;2023-03-14T16:26:18;8.20;99.90